sensor_id;sensor_type;location;lat;lon;timestamp;pressure;altitude;pressure_sealevel;temperature;humidity
29383;BME280;16365;51.598;7.668;2023-05-29T00:00:38;101492.69;;;20.95;35.90
29383;BME280;16365;51.598;7.668;2023-05-29T00:03:04;101495.91;;;20.94;35.79
29383;BME280;16365;51.598;7.668;2023-05-29T00:05:31;101501.09;;;20.92;35.95
29383;BME280;16365;51.598;7.668;2023-05-29T00:07:58;101507.50;;;20.89;36.04
29383;BME280;16365;51.598;7.668;2023-05-29T00:10:24;101507.81;;;20.84;36.15
29383;BME280;16365;51.598;7.668;2023-05-29T00:12:51;101502.13;;;20.80;36.27
29383;BME280;16365;51.598;7.668;2023-05-29T00:15:18;101498.44;;;20.76;36.14
29383;BME280;16365;51.598;7.668;2023-05-29T00:17:44;101501.19;;;20.72;36.39
29383;BME280;16365;51.598;7.668;2023-05-29T00:20:11;101506.75;;;20.69;36.40
29383;BME280;16365;51.598;7.668;2023-05-29T00:22:38;101503.09;;;20.65;36.71
29383;BME280;16365;51.598;7.668;2023-05-29T00:25:06;101499.41;;;20.61;36.51
29383;BME280;16365;51.598;7.668;2023-05-29T00:27:34;101508.59;;;20.58;36.50
29383;BME280;16365;51.598;7.668;2023-05-29T00:30:01;101506.09;;;20.52;36.55
29383;BME280;16365;51.598;7.668;2023-05-29T00:32:27;101500.78;;;20.47;36.43
29383;BME280;16365;51.598;7.668;2023-05-29T00:34:54;101507.50;;;20.43;36.76
29383;BME280;16365;51.598;7.668;2023-05-29T00:37:22;101505.81;;;20.38;36.70
29383;BME280;16365;51.598;7.668;2023-05-29T00:39:49;101517.41;;;20.33;36.77
29383;BME280;16365;51.598;7.668;2023-05-29T00:42:16;101522.09;;;20.25;36.88
29383;BME280;16365;51.598;7.668;2023-05-29T00:44:42;101526.78;;;20.18;36.93
29383;BME280;16365;51.598;7.668;2023-05-29T00:47:09;101527.44;;;20.11;37.10
29383;BME280;16365;51.598;7.668;2023-05-29T00:49:37;101532.16;;;20.03;37.24
29383;BME280;16365;51.598;7.668;2023-05-29T00:52:05;101530.38;;;19.95;37.36
29383;BME280;16365;51.598;7.668;2023-05-29T00:54:36;101533.50;;;19.90;37.49
29383;BME280;16365;51.598;7.668;2023-05-29T00:57:04;101541.44;;;19.85;37.90
29383;BME280;16365;51.598;7.668;2023-05-29T00:59:33;101548.09;;;19.76;38.06
29383;BME280;16365;51.598;7.668;2023-05-29T01:02:01;101545.94;;;19.70;37.94
29383;BME280;16365;51.598;7.668;2023-05-29T01:04:29;101540.25;;;19.66;36.97
29383;BME280;16365;51.598;7.668;2023-05-29T01:06:55;101546.97;;;19.62;37.85
29383;BME280;16365;51.598;7.668;2023-05-29T01:09:23;101549.16;;;19.52;38.15
29383;BME280;16365;51.598;7.668;2023-05-29T01:11:57;101554.25;;;19.47;38.29
29383;BME280;16365;51.598;7.668;2023-05-29T01:17:19;101557.94;;;19.32;39.11
29383;BME280;16365;51.598;7.668;2023-05-29T01:23:12;101558.03;;;19.19;39.23
29383;BME280;16365;51.598;7.668;2023-05-29T01:28:33;101562.63;;;19.08;39.62
29383;BME280;16365;51.598;7.668;2023-05-29T01:31:04;101564.91;;;19.03;39.11
29383;BME280;16365;51.598;7.668;2023-05-29T01:33:32;101564.38;;;18.97;39.34
29383;BME280;16365;51.598;7.668;2023-05-29T01:36:00;101566.63;;;18.91;39.16
29383;BME280;16365;51.598;7.668;2023-05-29T01:38:26;101569.72;;;18.86;39.17
29383;BME280;16365;51.598;7.668;2023-05-29T01:40:53;101573.63;;;18.82;39.14
29383;BME280;16365;51.598;7.668;2023-05-29T01:43:21;101572.34;;;18.79;38.64
29383;BME280;16365;51.598;7.668;2023-05-29T01:45:48;101577.16;;;18.79;39.29
29383;BME280;16365;51.598;7.668;2023-05-29T01:48:15;101581.03;;;18.74;39.37
29383;BME280;16365;51.598;7.668;2023-05-29T01:50:43;101578.50;;;18.69;39.04
29383;BME280;16365;51.598;7.668;2023-05-29T01:53:10;101582.00;;;18.66;39.36
29383;BME280;16365;51.598;7.668;2023-05-29T01:55:36;101590.34;;;18.62;39.74
29383;BME280;16365;51.598;7.668;2023-05-29T01:58:05;101586.63;;;18.58;39.54
29383;BME280;16365;51.598;7.668;2023-05-29T02:00:32;101587.00;;;18.57;39.42
29383;BME280;16365;51.598;7.668;2023-05-29T02:02:59;101588.53;;;18.54;39.70
29383;BME280;16365;51.598;7.668;2023-05-29T02:05:25;101590.06;;;18.52;39.91
29383;BME280;16365;51.598;7.668;2023-05-29T02:07:53;101582.47;;;18.52;39.76
29383;BME280;16365;51.598;7.668;2023-05-29T02:10:20;101588.44;;;18.50;39.98
29383;BME280;16365;51.598;7.668;2023-05-29T02:12:46;101579.19;;;18.50;39.74
29383;BME280;16365;51.598;7.668;2023-05-29T02:15:12;101589.97;;;18.48;40.26
29383;BME280;16365;51.598;7.668;2023-05-29T02:17:39;101594.78;;;18.47;39.67
29383;BME280;16365;51.598;7.668;2023-05-29T02:20:08;101587.50;;;18.46;39.69
29383;BME280;16365;51.598;7.668;2023-05-29T02:22:34;101589.88;;;18.44;40.46
29383;BME280;16365;51.598;7.668;2023-05-29T02:25:03;101587.44;;;18.43;40.30
29383;BME280;16365;51.598;7.668;2023-05-29T02:27:30;101592.25;;;18.42;40.26
29383;BME280;16365;51.598;7.668;2023-05-29T02:29:56;101584.97;;;18.41;40.15
29383;BME280;16365;51.598;7.668;2023-05-29T02:32:24;101597.38;;;18.40;40.00
29383;BME280;16365;51.598;7.668;2023-05-29T02:34:53;101586.16;;;18.40;40.52
29383;BME280;16365;51.598;7.668;2023-05-29T02:37:20;101597.00;;;18.42;40.17
29383;BME280;16365;51.598;7.668;2023-05-29T02:39:47;101595.06;;;18.42;40.54
29383;BME280;16365;51.598;7.668;2023-05-29T02:42:13;101598.31;;;18.44;40.27
29383;BME280;16365;51.598;7.668;2023-05-29T02:44:40;101604.72;;;18.45;40.20
29383;BME280;16365;51.598;7.668;2023-05-29T02:47:07;101596.31;;;18.45;40.14
29383;BME280;16365;51.598;7.668;2023-05-29T02:49:33;101596.31;;;18.45;39.96
29383;BME280;16365;51.598;7.668;2023-05-29T02:52:00;101596.69;;;18.43;40.44
29383;BME280;16365;51.598;7.668;2023-05-29T02:54:26;101603.47;;;18.42;40.21
29383;BME280;16365;51.598;7.668;2023-05-29T02:56:53;101597.88;;;18.42;40.19
29383;BME280;16365;51.598;7.668;2023-05-29T02:59:20;101606.28;;;18.42;40.13
29383;BME280;16365;51.598;7.668;2023-05-29T03:01:46;101613.53;;;18.43;40.78
29383;BME280;16365;51.598;7.668;2023-05-29T03:04:14;101611.91;;;18.42;40.15
29383;BME280;16365;51.598;7.668;2023-05-29T03:06:41;101606.63;;;18.41;40.46
29383;BME280;16365;51.598;7.668;2023-05-29T03:09:07;101617.03;;;18.40;40.40
29383;BME280;16365;51.598;7.668;2023-05-29T03:11:34;101619.03;;;18.40;40.37
29383;BME280;16365;51.598;7.668;2023-05-29T03:14:02;101612.59;;;18.39;40.46
29383;BME280;16365;51.598;7.668;2023-05-29T03:16:28;101612.50;;;18.36;40.47
29383;BME280;16365;51.598;7.668;2023-05-29T03:18:55;101613.69;;;18.35;40.59
29383;BME280;16365;51.598;7.668;2023-05-29T03:21:22;101613.69;;;18.35;40.40
29383;BME280;16365;51.598;7.668;2023-05-29T03:23:49;101616.06;;;18.33;40.85
29383;BME280;16365;51.598;7.668;2023-05-29T03:26:16;101618.00;;;18.32;40.43
29383;BME280;16365;51.598;7.668;2023-05-29T03:28:44;101616.38;;;18.31;40.44
29383;BME280;16365;51.598;7.668;2023-05-29T03:31:11;101618.38;;;18.31;40.86
29383;BME280;16365;51.598;7.668;2023-05-29T03:33:37;101610.31;;;18.29;40.77
29383;BME280;16365;51.598;7.668;2023-05-29T03:36:04;101609.84;;;18.27;40.61
29383;BME280;16365;51.598;7.668;2023-05-29T03:38:31;101613.84;;;18.26;40.96
29383;BME280;16365;51.598;7.668;2023-05-29T03:40:59;101617.47;;;18.27;40.60
29383;BME280;16365;51.598;7.668;2023-05-29T03:43:25;101605.78;;;18.24;40.70
29383;BME280;16365;51.598;7.668;2023-05-29T03:45:52;101603.78;;;18.25;40.28
29383;BME280;16365;51.598;7.668;2023-05-29T03:48:19;101609.78;;;18.23;40.69
29383;BME280;16365;51.598;7.668;2023-05-29T03:50:48;101607.66;;;18.20;41.45
29383;BME280;16365;51.598;7.668;2023-05-29T03:53:15;101621.72;;;18.20;40.42
29383;BME280;16365;51.598;7.668;2023-05-29T03:55:43;101622.41;;;18.17;40.69
29383;BME280;16365;51.598;7.668;2023-05-29T03:58:10;101617.16;;;18.16;40.76
29383;BME280;16365;51.598;7.668;2023-05-29T04:00:38;101623.16;;;18.14;40.71
29383;BME280;16365;51.598;7.668;2023-05-29T04:03:05;101621.84;;;18.12;40.50
29383;BME280;16365;51.598;7.668;2023-05-29T04:05:32;101632.97;;;18.08;40.62
29383;BME280;16365;51.598;7.668;2023-05-29T04:07:58;101627.28;;;18.05;40.82
29383;BME280;16365;51.598;7.668;2023-05-29T04:10:40;101624.00;;;18.03;40.87
29383;BME280;16365;51.598;7.668;2023-05-29T04:13:06;101633.97;;;18.00;40.76
29383;BME280;16365;51.598;7.668;2023-05-29T04:15:33;101639.09;;;17.98;41.02
29383;BME280;16365;51.598;7.668;2023-05-29T04:18:00;101634.66;;;17.97;40.88
29383;BME280;16365;51.598;7.668;2023-05-29T04:20:27;101640.63;;;17.95;40.92
29383;BME280;16365;51.598;7.668;2023-05-29T04:22:53;101638.63;;;17.96;41.09
29383;BME280;16365;51.598;7.668;2023-05-29T04:25:20;101634.66;;;17.97;41.27
29383;BME280;16365;51.598;7.668;2023-05-29T04:27:47;101629.97;;;18.01;41.55
29383;BME280;16365;51.598;7.668;2023-05-29T04:30:15;101630.53;;;18.07;41.41
29383;BME280;16365;51.598;7.668;2023-05-29T04:32:43;101631.91;;;18.13;40.95
29383;BME280;16365;51.598;7.668;2023-05-29T04:35:10;101631.66;;;18.18;40.74
29383;BME280;16365;51.598;7.668;2023-05-29T04:37:37;101638.91;;;18.19;40.84
29383;BME280;16365;51.598;7.668;2023-05-29T04:40:06;101639.72;;;18.19;40.96
29383;BME280;16365;51.598;7.668;2023-05-29T04:42:38;101639.72;;;18.19;41.14
29383;BME280;16365;51.598;7.668;2023-05-29T04:45:08;101644.53;;;18.19;40.85
29383;BME280;16365;51.598;7.668;2023-05-29T04:47:37;101649.66;;;18.17;40.69
29383;BME280;16365;51.598;7.668;2023-05-29T04:50:13;101658.44;;;18.15;40.61
29383;BME280;16365;51.598;7.668;2023-05-29T04:52:40;101658.81;;;18.14;41.10
29383;BME280;16365;51.598;7.668;2023-05-29T04:55:08;101659.97;;;18.13;40.85
29383;BME280;16365;51.598;7.668;2023-05-29T04:57:37;101658.72;;;18.10;41.06
29383;BME280;16365;51.598;7.668;2023-05-29T05:00:04;101664.69;;;18.09;41.05
29383;BME280;16365;51.598;7.668;2023-05-29T05:02:44;101664.94;;;18.04;41.41
29383;BME280;16365;51.598;7.668;2023-05-29T05:05:11;101669.38;;;18.05;41.25
29383;BME280;16365;51.598;7.668;2023-05-29T05:07:37;101671.81;;;18.06;41.27
29383;BME280;16365;51.598;7.668;2023-05-29T05:10:04;101661.28;;;18.03;40.99
29383;BME280;16365;51.598;7.668;2023-05-29T05:12:31;101666.91;;;18.03;40.76
29383;BME280;16365;51.598;7.668;2023-05-29T05:14:57;101673.25;;;18.00;41.17
29383;BME280;16365;51.598;7.668;2023-05-29T05:17:24;101669.16;;;17.97;41.07
29383;BME280;16365;51.598;7.668;2023-05-29T05:19:50;101667.75;;;17.91;40.84
29383;BME280;16365;51.598;7.668;2023-05-29T05:22:19;101663.34;;;17.90;41.04
29383;BME280;16365;51.598;7.668;2023-05-29T05:24:46;101667.19;;;17.86;41.32
29383;BME280;16365;51.598;7.668;2023-05-29T05:27:13;101659.97;;;17.85;41.38
29383;BME280;16365;51.598;7.668;2023-05-29T05:29:39;101668.38;;;17.85;41.73
29383;BME280;16365;51.598;7.668;2023-05-29T05:32:06;101668.00;;;17.86;41.48
29383;BME280;16365;51.598;7.668;2023-05-29T05:34:33;101678.19;;;17.91;41.83
29383;BME280;16365;51.598;7.668;2023-05-29T05:37:00;101682.72;;;17.95;41.36
29383;BME280;16365;51.598;7.668;2023-05-29T05:39:28;101682.00;;;17.98;41.29
29383;BME280;16365;51.598;7.668;2023-05-29T05:41:54;101685.84;;;18.06;41.42
29383;BME280;16365;51.598;7.668;2023-05-29T05:44:21;101684.78;;;18.11;41.37
29383;BME280;16365;51.598;7.668;2023-05-29T05:46:48;101670.84;;;18.14;41.08
29383;BME280;16365;51.598;7.668;2023-05-29T05:49:14;101665.31;;;18.18;40.86
29383;BME280;16365;51.598;7.668;2023-05-29T05:51:41;101665.44;;;18.21;41.17
29383;BME280;16365;51.598;7.668;2023-05-29T05:54:07;101663.09;;;18.23;41.06
29383;BME280;16365;51.598;7.668;2023-05-29T05:56:34;101662.38;;;18.27;40.89
29383;BME280;16365;51.598;7.668;2023-05-29T05:59:01;101671.28;;;18.29;41.09
29383;BME280;16365;51.598;7.668;2023-05-29T06:01:27;101670.91;;;18.30;40.89
29383;BME280;16365;51.598;7.668;2023-05-29T06:03:54;101673.00;;;18.33;40.92
29383;BME280;16365;51.598;7.668;2023-05-29T06:06:21;101671.03;;;18.34;40.62
29383;BME280;16365;51.598;7.668;2023-05-29T06:08:48;101668.66;;;18.36;40.93
29383;BME280;16365;51.598;7.668;2023-05-29T06:11:15;101667.47;;;18.37;40.86
29383;BME280;16365;51.598;7.668;2023-05-29T06:13:44;101673.09;;;18.37;40.90
29383;BME280;16365;51.598;7.668;2023-05-29T06:16:10;101674.75;;;18.38;41.26
29383;BME280;16365;51.598;7.668;2023-05-29T06:18:37;101677.63;;;18.41;41.22
29383;BME280;16365;51.598;7.668;2023-05-29T06:21:03;101679.75;;;18.44;40.90
29383;BME280;16365;51.598;7.668;2023-05-29T06:23:31;101681.84;;;18.47;41.12
29383;BME280;16365;51.598;7.668;2023-05-29T06:26:00;101677.97;;;18.52;40.79
29383;BME280;16365;51.598;7.668;2023-05-29T06:28:26;101680.84;;;18.56;40.83
29383;BME280;16365;51.598;7.668;2023-05-29T06:30:53;101685.75;;;18.59;40.71
29383;BME280;16365;51.598;7.668;2023-05-29T06:33:20;101677.44;;;18.62;40.62
29383;BME280;16365;51.598;7.668;2023-05-29T06:35:56;101687.00;;;18.61;41.28
29383;BME280;16365;51.598;7.668;2023-05-29T06:38:23;101682.78;;;18.67;40.85
29383;BME280;16365;51.598;7.668;2023-05-29T06:40:49;101683.38;;;18.73;40.76
29383;BME280;16365;51.598;7.668;2023-05-29T06:43:16;101679.91;;;18.80;40.85
29383;BME280;16365;51.598;7.668;2023-05-29T06:45:43;101682.94;;;18.87;40.88
29383;BME280;16365;51.598;7.668;2023-05-29T06:48:09;101671.88;;;18.94;40.64
29383;BME280;16365;51.598;7.668;2023-05-29T06:50:36;101680.03;;;18.99;40.56
29383;BME280;16365;51.598;7.668;2023-05-29T06:53:03;101670.16;;;19.05;40.44
29383;BME280;16365;51.598;7.668;2023-05-29T06:55:29;101671.88;;;19.10;40.51
29383;BME280;16365;51.598;7.668;2023-05-29T06:58:00;101680.41;;;19.13;40.40
29383;BME280;16365;51.598;7.668;2023-05-29T07:00:27;101683.31;;;19.17;40.38
29383;BME280;16365;51.598;7.668;2023-05-29T07:02:54;101686.66;;;19.22;40.34
29383;BME280;16365;51.598;7.668;2023-05-29T07:05:22;101686.75;;;19.26;40.27
29383;BME280;16365;51.598;7.668;2023-05-29T07:07:49;101690.09;;;19.32;40.14
29383;BME280;16365;51.598;7.668;2023-05-29T07:10:15;101691.00;;;19.36;40.27
29383;BME280;16365;51.598;7.668;2023-05-29T07:12:42;101685.47;;;19.39;40.11
29383;BME280;16365;51.598;7.668;2023-05-29T07:15:08;101693.97;;;19.43;40.13
29383;BME280;16365;51.598;7.668;2023-05-29T07:17:35;101692.88;;;19.47;40.26
29383;BME280;16365;51.598;7.668;2023-05-29T07:20:03;101693.41;;;19.53;40.12
29383;BME280;16365;51.598;7.668;2023-05-29T07:22:34;101698.44;;;19.60;40.42
29383;BME280;16365;51.598;7.668;2023-05-29T07:25:02;101698.59;;;19.67;40.35
29383;BME280;16365;51.598;7.668;2023-05-29T07:27:29;101699.59;;;19.74;40.14
29383;BME280;16365;51.598;7.668;2023-05-29T07:29:56;101700.22;;;19.84;40.08
29383;BME280;16365;51.598;7.668;2023-05-29T07:32:22;101709.63;;;19.91;40.20
29383;BME280;16365;51.598;7.668;2023-05-29T07:34:49;101708.59;;;19.99;40.08
29383;BME280;16365;51.598;7.668;2023-05-29T07:37:16;101708.03;;;20.10;39.73
29383;BME280;16365;51.598;7.668;2023-05-29T07:39:45;101706.25;;;20.21;39.90
29383;BME280;16365;51.598;7.668;2023-05-29T07:42:12;101705.69;;;20.31;39.46
29383;BME280;16365;51.598;7.668;2023-05-29T07:44:39;101695.81;;;20.41;39.47
29383;BME280;16365;51.598;7.668;2023-05-29T07:47:09;101700.88;;;20.51;39.50
29383;BME280;16365;51.598;7.668;2023-05-29T07:49:35;101705.53;;;20.63;39.24
29383;BME280;16365;51.598;7.668;2023-05-29T07:52:02;101711.38;;;20.73;39.12
29383;BME280;16365;51.598;7.668;2023-05-29T07:54:30;101705.97;;;20.84;38.92
29383;BME280;16365;51.598;7.668;2023-05-29T07:56:59;101715.41;;;20.95;38.88
29383;BME280;16365;51.598;7.668;2023-05-29T07:59:26;101716.81;;;21.05;38.67
29383;BME280;16365;51.598;7.668;2023-05-29T08:01:52;101708.91;;;21.14;38.60
29383;BME280;16365;51.598;7.668;2023-05-29T08:04:19;101706.25;;;21.25;38.34
29383;BME280;16365;51.598;7.668;2023-05-29T08:06:45;101714.94;;;21.36;37.81
29383;BME280;16365;51.598;7.668;2023-05-29T08:09:13;101718.69;;;21.43;37.77
29383;BME280;16365;51.598;7.668;2023-05-29T08:11:40;101709.53;;;21.50;37.80
29383;BME280;16365;51.598;7.668;2023-05-29T08:14:07;101714.50;;;21.57;37.80
29383;BME280;16365;51.598;7.668;2023-05-29T08:16:33;101725.47;;;21.65;37.37
29383;BME280;16365;51.598;7.668;2023-05-29T08:19:00;101723.59;;;21.73;37.19
29383;BME280;16365;51.598;7.668;2023-05-29T08:21:27;101723.34;;;21.81;36.99
29383;BME280;16365;51.598;7.668;2023-05-29T08:23:53;101726.63;;;21.87;37.03
29383;BME280;16365;51.598;7.668;2023-05-29T08:26:22;101726.72;;;21.94;36.84
29383;BME280;16365;51.598;7.668;2023-05-29T08:28:49;101725.63;;;22.02;36.68
29383;BME280;16365;51.598;7.668;2023-05-29T08:31:16;101723.28;;;22.08;36.54
29383;BME280;16365;51.598;7.668;2023-05-29T08:33:43;101720.97;;;22.14;36.61
29383;BME280;16365;51.598;7.668;2023-05-29T08:36:09;101713.44;;;22.21;35.91
29383;BME280;16365;51.598;7.668;2023-05-29T08:38:37;101711.47;;;22.25;36.03
29383;BME280;16365;51.598;7.668;2023-05-29T08:41:05;101717.19;;;22.32;36.09
29383;BME280;16365;51.598;7.668;2023-05-29T08:43:34;101714.84;;;22.38;36.23
29383;BME280;16365;51.598;7.668;2023-05-29T08:46:02;101722.22;;;22.46;36.17
29383;BME280;16365;51.598;7.668;2023-05-29T08:48:30;101722.72;;;22.55;36.07
29383;BME280;16365;51.598;7.668;2023-05-29T08:50:58;101722.44;;;22.64;36.20
29383;BME280;16365;51.598;7.668;2023-05-29T08:53:25;101724.97;;;22.73;35.28
29383;BME280;16365;51.598;7.668;2023-05-29T08:55:53;101727.03;;;22.79;35.04
29383;BME280;16365;51.598;7.668;2023-05-29T08:58:20;101720.63;;;22.82;34.91
29383;BME280;16365;51.598;7.668;2023-05-29T09:00:50;101725.13;;;22.87;35.04
29383;BME280;16365;51.598;7.668;2023-05-29T09:03:18;101730.41;;;22.89;35.07
29383;BME280;16365;51.598;7.668;2023-05-29T09:05:47;101723.09;;;22.88;34.50
29383;BME280;16365;51.598;7.668;2023-05-29T09:08:16;101732.75;;;22.87;34.57
29383;BME280;16365;51.598;7.668;2023-05-29T09:10:44;101733.56;;;22.83;34.54
29383;BME280;16365;51.598;7.668;2023-05-29T09:13:11;101742.00;;;22.80;34.37
29383;BME280;16365;51.598;7.668;2023-05-29T09:15:40;101732.66;;;22.76;34.42
29383;BME280;16365;51.598;7.668;2023-05-29T09:18:10;101732.59;;;22.72;34.78
29383;BME280;16365;51.598;7.668;2023-05-29T09:20:38;101744.69;;;22.69;34.55
29383;BME280;16365;51.598;7.668;2023-05-29T09:23:06;101743.09;;;22.72;34.71
29383;BME280;16365;51.598;7.668;2023-05-29T09:25:39;101740.66;;;22.70;34.16
29383;BME280;16365;51.598;7.668;2023-05-29T09:28:08;101732.13;;;22.67;34.45
29383;BME280;16365;51.598;7.668;2023-05-29T09:30:45;101735.31;;;22.62;34.48
29383;BME280;16365;51.598;7.668;2023-05-29T09:33:13;101732.06;;;22.60;34.47
29383;BME280;16365;51.598;7.668;2023-05-29T09:35:42;101729.59;;;22.54;34.85
29383;BME280;16365;51.598;7.668;2023-05-29T09:38:14;101748.94;;;22.52;34.56
29383;BME280;16365;51.598;7.668;2023-05-29T09:41:03;101735.19;;;22.51;34.72
29383;BME280;16365;51.598;7.668;2023-05-29T09:43:31;101735.25;;;22.54;34.83
29383;BME280;16365;51.598;7.668;2023-05-29T09:45:59;101737.28;;;22.57;35.03
29383;BME280;16365;51.598;7.668;2023-05-29T09:48:29;101742.59;;;22.63;34.75
29383;BME280;16365;51.598;7.668;2023-05-29T09:50:56;101743.03;;;22.65;34.57
29383;BME280;16365;51.598;7.668;2023-05-29T09:53:25;101737.44;;;22.68;34.59
29383;BME280;16365;51.598;7.668;2023-05-29T09:55:57;101736.22;;;22.69;34.71
29383;BME280;16365;51.598;7.668;2023-05-29T09:58:26;101737.44;;;22.72;34.88
29383;BME280;16365;51.598;7.668;2023-05-29T10:00:52;101730.22;;;22.74;34.25
29383;BME280;16365;51.598;7.668;2023-05-29T10:03:19;101724.16;;;22.76;34.46
29383;BME280;16365;51.598;7.668;2023-05-29T10:05:52;101744.00;;;22.79;34.34
29383;BME280;16365;51.598;7.668;2023-05-29T10:08:20;101727.44;;;22.81;34.12
29383;BME280;16365;51.598;7.668;2023-05-29T10:11:01;101733.91;;;22.78;34.48
29383;BME280;16365;51.598;7.668;2023-05-29T10:13:32;101728.25;;;22.82;34.42
29383;BME280;16365;51.598;7.668;2023-05-29T10:16:01;101726.28;;;22.86;34.25
29383;BME280;16365;51.598;7.668;2023-05-29T10:18:38;101719.81;;;22.86;34.46
29383;BME280;16365;51.598;7.668;2023-05-29T10:21:07;101728.00;;;22.91;34.39
29383;BME280;16365;51.598;7.668;2023-05-29T10:23:36;101728.84;;;22.95;34.51
29383;BME280;16365;51.598;7.668;2023-05-29T10:26:14;101728.09;;;23.01;34.10
29383;BME280;16365;51.598;7.668;2023-05-29T10:28:46;101727.38;;;23.08;33.99
29383;BME280;16365;51.598;7.668;2023-05-29T10:31:24;101719.72;;;23.12;34.28
29383;BME280;16365;51.598;7.668;2023-05-29T10:37:21;101725.09;;;23.24;33.93
29383;BME280;16365;51.598;7.668;2023-05-29T10:39:50;101715.47;;;23.32;33.69
29383;BME280;16365;51.598;7.668;2023-05-29T10:45:05;101713.06;;;23.38;34.16
29383;BME280;16365;51.598;7.668;2023-05-29T10:47:32;101713.50;;;23.40;33.62
29383;BME280;16365;51.598;7.668;2023-05-29T10:50:02;101714.31;;;23.41;33.81
29383;BME280;16365;51.598;7.668;2023-05-29T10:52:32;101705.03;;;23.44;33.92
29383;BME280;16365;51.598;7.668;2023-05-29T10:54:59;101702.66;;;23.49;34.01
29383;BME280;16365;51.598;7.668;2023-05-29T10:57:30;101716.84;;;23.53;34.01
29383;BME280;16365;51.598;7.668;2023-05-29T11:00:04;101715.66;;;23.57;33.66
29383;BME280;16365;51.598;7.668;2023-05-29T11:02:37;101711.66;;;23.62;33.59
29383;BME280;16365;51.598;7.668;2023-05-29T11:05:21;101709.25;;;23.64;33.64
29383;BME280;16365;51.598;7.668;2023-05-29T11:07:58;101716.19;;;23.70;33.48
29383;BME280;16365;51.598;7.668;2023-05-29T11:10:44;101713.75;;;23.69;33.34
29383;BME280;16365;51.598;7.668;2023-05-29T11:13:36;101702.84;;;23.71;33.16
29383;BME280;16365;51.598;7.668;2023-05-29T11:18:56;101701.63;;;23.72;33.26
29383;BME280;16365;51.598;7.668;2023-05-29T11:24:29;101694.38;;;23.74;34.16
29383;BME280;16365;51.598;7.668;2023-05-29T11:26:56;101695.19;;;23.78;34.08
29383;BME280;16365;51.598;7.668;2023-05-29T11:29:28;101689.97;;;23.80;33.80
29383;BME280;16365;51.598;7.668;2023-05-29T11:31:58;101694.44;;;23.85;34.10
29383;BME280;16365;51.598;7.668;2023-05-29T11:34:29;101700.94;;;23.93;34.00
29383;BME280;16365;51.598;7.668;2023-05-29T11:37:00;101701.41;;;23.98;33.54
29383;BME280;16365;51.598;7.668;2023-05-29T11:39:27;101698.59;;;24.05;33.56
29383;BME280;16365;51.598;7.668;2023-05-29T11:42:00;101694.97;;;24.08;33.57
29383;BME280;16365;51.598;7.668;2023-05-29T11:44:26;101692.13;;;24.12;33.21
29383;BME280;16365;51.598;7.668;2023-05-29T11:47:05;101694.97;;;24.12;33.54
29383;BME280;16365;51.598;7.668;2023-05-29T11:49:35;101698.66;;;24.16;33.56
29383;BME280;16365;51.598;7.668;2023-05-29T11:52:08;101698.25;;;24.18;33.71
29383;BME280;16365;51.598;7.668;2023-05-29T11:54:37;101696.22;;;24.22;33.51
29383;BME280;16365;51.598;7.668;2023-05-29T11:57:05;101698.28;;;24.25;33.23
29383;BME280;16365;51.598;7.668;2023-05-29T11:59:32;101691.03;;;24.27;33.12
29383;BME280;16365;51.598;7.668;2023-05-29T12:02:03;101690.19;;;24.27;33.14
29383;BME280;16365;51.598;7.668;2023-05-29T12:04:30;101690.63;;;24.32;33.54
29383;BME280;16365;51.598;7.668;2023-05-29T12:06:56;101685.78;;;24.33;33.13
29383;BME280;16365;51.598;7.668;2023-05-29T12:09:29;101678.47;;;24.32;33.31
29383;BME280;16365;51.598;7.668;2023-05-29T12:12:04;101678.47;;;24.35;33.38
29383;BME280;16365;51.598;7.668;2023-05-29T12:14:30;101673.28;;;24.38;32.78
29383;BME280;16365;51.598;7.668;2023-05-29T12:16:57;101675.28;;;24.41;33.09
29383;BME280;16365;51.598;7.668;2023-05-29T12:19:24;101679.75;;;24.42;32.90
29383;BME280;16365;51.598;7.668;2023-05-29T12:21:51;101683.00;;;24.44;32.87
29383;BME280;16365;51.598;7.668;2023-05-29T12:24:19;101685.84;;;24.44;32.84
29383;BME280;16365;51.598;7.668;2023-05-29T12:26:53;101672.06;;;24.46;32.32
29383;BME280;16365;51.598;7.668;2023-05-29T12:29:32;101672.47;;;24.44;32.54
29383;BME280;16365;51.598;7.668;2023-05-29T12:31:59;101681.00;;;24.48;32.74
29383;BME280;16365;51.598;7.668;2023-05-29T12:34:26;101668.44;;;24.49;32.54
29383;BME280;16365;51.598;7.668;2023-05-29T12:36:53;101670.88;;;24.50;32.43
29383;BME280;16365;51.598;7.668;2023-05-29T12:39:19;101668.44;;;24.52;32.50
29383;BME280;16365;51.598;7.668;2023-05-29T12:41:47;101670.47;;;24.52;32.79
29383;BME280;16365;51.598;7.668;2023-05-29T12:44:14;101673.72;;;24.57;32.70
29383;BME280;16365;51.598;7.668;2023-05-29T12:46:42;101685.91;;;24.61;32.85
29383;BME280;16365;51.598;7.668;2023-05-29T12:49:16;101678.59;;;24.64;32.83
29383;BME280;16365;51.598;7.668;2023-05-29T12:51:44;101681.44;;;24.68;32.32
29383;BME280;16365;51.598;7.668;2023-05-29T12:54:13;101690.38;;;24.73;32.38
29383;BME280;16365;51.598;7.668;2023-05-29T12:56:40;101687.13;;;24.78;32.27
29383;BME280;16365;51.598;7.668;2023-05-29T12:59:08;101685.53;;;24.81;32.19
29383;BME280;16365;51.598;7.668;2023-05-29T13:01:36;101686.34;;;24.85;32.19
29383;BME280;16365;51.598;7.668;2023-05-29T13:04:07;101683.91;;;24.87;31.88
29383;BME280;16365;51.598;7.668;2023-05-29T13:06:37;101675.81;;;24.89;31.68
29383;BME280;16365;51.598;7.668;2023-05-29T13:09:06;101673.78;;;24.93;31.85
29383;BME280;16365;51.598;7.668;2023-05-29T13:11:34;101671.38;;;24.95;31.98
29383;BME280;16365;51.598;7.668;2023-05-29T13:14:03;101673.00;;;24.96;32.33
29383;BME280;16365;51.598;7.668;2023-05-29T13:16:30;101679.88;;;24.99;32.27